sensor_id;sensor_type;location;lat;lon;timestamp;P1;P2;P0
70255;PMS5003;57669;52.624;-1.688;2023-02-28T00:00:34;20;20;
70255;PMS5003;57669;52.624;-1.688;2023-02-28T00:02:59;20;19;
70255;PMS5003;57669;52.624;-1.688;2023-02-28T00:05:25;16;16;
70255;PMS5003;57669;52.624;-1.688;2023-02-28T00:07:50;18;18;
70255;PMS5003;57669;52.624;-1.688;2023-02-28T00:10:17;17;17;
70255;PMS5003;57669;52.624;-1.688;2023-02-28T00:12:41;17;17;
70255;PMS5003;57669;52.624;-1.688;2023-02-28T00:15:08;23;22;
70255;PMS5003;57669;52.624;-1.688;2023-02-28T00:17:32;19;18;
70255;PMS5003;57669;52.624;-1.688;2023-02-28T00:19:58;18;18;
70255;PMS5003;57669;52.624;-1.688;2023-02-28T00:22:23;18;17;
70255;PMS5003;57669;52.624;-1.688;2023-02-28T00:24:48;19;19;
70255;PMS5003;57669;52.624;-1.688;2023-02-28T00:27:14;20;20;
70255;PMS5003;57669;52.624;-1.688;2023-02-28T00:29:40;19;18;
70255;PMS5003;57669;52.624;-1.688;2023-02-28T00:32:05;21;19;
70255;PMS5003;57669;52.624;-1.688;2023-02-28T00:34:30;26;26;
70255;PMS5003;57669;52.624;-1.688;2023-02-28T00:36:55;30;30;
70255;PMS5003;57669;52.624;-1.688;2023-02-28T00:39:20;23;23;
70255;PMS5003;57669;52.624;-1.688;2023-02-28T00:41:46;28;28;
70255;PMS5003;57669;52.624;-1.688;2023-02-28T00:44:11;25;24;
70255;PMS5003;57669;52.624;-1.688;2023-02-28T00:46:37;27;27;
70255;PMS5003;57669;52.624;-1.688;2023-02-28T00:49:02;22;22;
70255;PMS5003;57669;52.624;-1.688;2023-02-28T00:51:28;27;26;
70255;PMS5003;57669;52.624;-1.688;2023-02-28T00:53:53;29;29;
70255;PMS5003;57669;52.624;-1.688;2023-02-28T00:56:18;31;31;
70255;PMS5003;57669;52.624;-1.688;2023-02-28T00:58:44;25;25;
70255;PMS5003;57669;52.624;-1.688;2023-02-28T01:01:09;29;28;
70255;PMS5003;57669;52.624;-1.688;2023-02-28T01:03:35;31;28;
70255;PMS5003;57669;52.624;-1.688;2023-02-28T01:06:00;30;29;
70255;PMS5003;57669;52.624;-1.688;2023-02-28T01:08:25;31;31;
70255;PMS5003;57669;52.624;-1.688;2023-02-28T01:10:51;26;25;
70255;PMS5003;57669;52.624;-1.688;2023-02-28T01:15:42;29;28;
70255;PMS5003;57669;52.624;-1.688;2023-02-28T01:18:06;28;28;
70255;PMS5003;57669;52.624;-1.688;2023-02-28T01:20:32;28;27;
70255;PMS5003;57669;52.624;-1.688;2023-02-28T01:22:57;31;30;
70255;PMS5003;57669;52.624;-1.688;2023-02-28T01:25:23;32;28;
70255;PMS5003;57669;52.624;-1.688;2023-02-28T01:27:48;30;28;
70255;PMS5003;57669;52.624;-1.688;2023-02-28T01:30:14;24;23;
70255;PMS5003;57669;52.624;-1.688;2023-02-28T01:32:40;31;29;
70255;PMS5003;57669;52.624;-1.688;2023-02-28T01:37:30;30;30;
70255;PMS5003;57669;52.624;-1.688;2023-02-28T01:39:56;30;29;
70255;PMS5003;57669;52.624;-1.688;2023-02-28T01:42:21;22;22;
70255;PMS5003;57669;52.624;-1.688;2023-02-28T01:47:12;28;27;
70255;PMS5003;57669;52.624;-1.688;2023-02-28T01:49:38;23;23;
70255;PMS5003;57669;52.624;-1.688;2023-02-28T01:52:03;25;23;
70255;PMS5003;57669;52.624;-1.688;2023-02-28T01:54:29;24;21;
70255;PMS5003;57669;52.624;-1.688;2023-02-28T01:56:55;30;25;
70255;PMS5003;57669;52.624;-1.688;2023-02-28T01:59:20;25;25;
70255;PMS5003;57669;52.624;-1.688;2023-02-28T02:01:44;28;28;
70255;PMS5003;57669;52.624;-1.688;2023-02-28T02:04:09;25;24;
70255;PMS5003;57669;52.624;-1.688;2023-02-28T02:06:36;23;22;
70255;PMS5003;57669;52.624;-1.688;2023-02-28T02:09:01;27;25;
70255;PMS5003;57669;52.624;-1.688;2023-02-28T02:11:26;24;24;
70255;PMS5003;57669;52.624;-1.688;2023-02-28T02:16:21;17;17;
70255;PMS5003;57669;52.624;-1.688;2023-02-28T02:18:43;29;27;
70255;PMS5003;57669;52.624;-1.688;2023-02-28T02:26:00;25;24;
70255;PMS5003;57669;52.624;-1.688;2023-02-28T02:30:56;21;21;
70255;PMS5003;57669;52.624;-1.688;2023-02-28T02:35:42;17;17;
70255;PMS5003;57669;52.624;-1.688;2023-02-28T02:38:07;18;18;
70255;PMS5003;57669;52.624;-1.688;2023-02-28T02:40:35;18;18;
70255;PMS5003;57669;52.624;-1.688;2023-02-28T02:42:58;16;15;
70255;PMS5003;57669;52.624;-1.688;2023-02-28T02:45:23;18;18;
70255;PMS5003;57669;52.624;-1.688;2023-02-28T02:47:47;13;13;
70255;PMS5003;57669;52.624;-1.688;2023-02-28T02:50:14;15;15;
70255;PMS5003;57669;52.624;-1.688;2023-02-28T02:55:03;14;14;
70255;PMS5003;57669;52.624;-1.688;2023-02-28T02:57:30;15;13;
70255;PMS5003;57669;52.624;-1.688;2023-02-28T02:59:54;15;14;
70255;PMS5003;57669;52.624;-1.688;2023-02-28T03:02:19;15;14;
70255;PMS5003;57669;52.624;-1.688;2023-02-28T03:04:46;14;14;
70255;PMS5003;57669;52.624;-1.688;2023-02-28T03:07:10;13;13;
70255;PMS5003;57669;52.624;-1.688;2023-02-28T03:09:36;12;11;
70255;PMS5003;57669;52.624;-1.688;2023-02-28T03:12:02;11;11;
70255;PMS5003;57669;52.624;-1.688;2023-02-28T03:14:30;14;13;
70255;PMS5003;57669;52.624;-1.688;2023-02-28T03:21:45;9;9;
70255;PMS5003;57669;52.624;-1.688;2023-02-28T03:24:10;12;12;
70255;PMS5003;57669;52.624;-1.688;2023-02-28T03:26:36;11;10;
70255;PMS5003;57669;52.624;-1.688;2023-02-28T03:29:01;11;10;
70255;PMS5003;57669;52.624;-1.688;2023-02-28T03:31:26;10;10;
70255;PMS5003;57669;52.624;-1.688;2023-02-28T03:33:51;14;12;
70255;PMS5003;57669;52.624;-1.688;2023-02-28T03:36:16;13;13;
70255;PMS5003;57669;52.624;-1.688;2023-02-28T03:38:41;10;10;
70255;PMS5003;57669;52.624;-1.688;2023-02-28T03:41:06;13;12;
70255;PMS5003;57669;52.624;-1.688;2023-02-28T03:43:31;13;12;
70255;PMS5003;57669;52.624;-1.688;2023-02-28T03:48:23;14;13;
70255;PMS5003;57669;52.624;-1.688;2023-02-28T03:50:48;15;15;
70255;PMS5003;57669;52.624;-1.688;2023-02-28T03:53:14;20;19;
70255;PMS5003;57669;52.624;-1.688;2023-02-28T03:55:40;18;18;
70255;PMS5003;57669;52.624;-1.688;2023-02-28T03:58:05;16;16;
70255;PMS5003;57669;52.624;-1.688;2023-02-28T04:00:31;21;20;
70255;PMS5003;57669;52.624;-1.688;2023-02-28T04:02:56;14;14;
70255;PMS5003;57669;52.624;-1.688;2023-02-28T04:05:21;14;14;
70255;PMS5003;57669;52.624;-1.688;2023-02-28T04:07:47;20;20;
70255;PMS5003;57669;52.624;-1.688;2023-02-28T04:10:12;15;15;
70255;PMS5003;57669;52.624;-1.688;2023-02-28T04:12:37;17;17;
70255;PMS5003;57669;52.624;-1.688;2023-02-28T04:15:04;16;16;
70255;PMS5003;57669;52.624;-1.688;2023-02-28T04:17:29;13;13;
70255;PMS5003;57669;52.624;-1.688;2023-02-28T04:19:54;16;16;
70255;PMS5003;57669;52.624;-1.688;2023-02-28T04:22:20;23;22;
70255;PMS5003;57669;52.624;-1.688;2023-02-28T04:24:45;21;20;
70255;PMS5003;57669;52.624;-1.688;2023-02-28T04:27:11;19;19;
70255;PMS5003;57669;52.624;-1.688;2023-02-28T04:29:36;20;20;
70255;PMS5003;57669;52.624;-1.688;2023-02-28T04:32:02;15;14;
70255;PMS5003;57669;52.624;-1.688;2023-02-28T04:34:28;16;15;
70255;PMS5003;57669;52.624;-1.688;2023-02-28T04:36:55;22;20;
70255;PMS5003;57669;52.624;-1.688;2023-02-28T04:39:18;22;22;
70255;PMS5003;57669;52.624;-1.688;2023-02-28T04:41:43;17;17;
70255;PMS5003;57669;52.624;-1.688;2023-02-28T04:44:09;24;19;
70255;PMS5003;57669;52.624;-1.688;2023-02-28T04:46:34;28;28;
70255;PMS5003;57669;52.624;-1.688;2023-02-28T04:49:00;21;19;
70255;PMS5003;57669;52.624;-1.688;2023-02-28T04:51:25;20;20;
70255;PMS5003;57669;52.624;-1.688;2023-02-28T04:53:51;16;16;
70255;PMS5003;57669;52.624;-1.688;2023-02-28T04:56:17;18;18;
70255;PMS5003;57669;52.624;-1.688;2023-02-28T04:58:42;18;18;
70255;PMS5003;57669;52.624;-1.688;2023-02-28T05:03:33;19;18;
70255;PMS5003;57669;52.624;-1.688;2023-02-28T05:05:58;26;26;
70255;PMS5003;57669;52.624;-1.688;2023-02-28T05:08:23;24;24;
70255;PMS5003;57669;52.624;-1.688;2023-02-28T05:10:49;24;23;
70255;PMS5003;57669;52.624;-1.688;2023-02-28T05:13:14;23;19;
70255;PMS5003;57669;52.624;-1.688;2023-02-28T05:15:39;20;20;
70255;PMS5003;57669;52.624;-1.688;2023-02-28T05:18:05;27;27;
70255;PMS5003;57669;52.624;-1.688;2023-02-28T05:20:30;22;22;
70255;PMS5003;57669;52.624;-1.688;2023-02-28T05:23:00;26;26;
70255;PMS5003;57669;52.624;-1.688;2023-02-28T05:25:21;22;21;
70255;PMS5003;57669;52.624;-1.688;2023-02-28T05:27:46;28;28;
70255;PMS5003;57669;52.624;-1.688;2023-02-28T05:30:12;24;24;
70255;PMS5003;57669;52.624;-1.688;2023-02-28T05:32:37;29;28;
70255;PMS5003;57669;52.624;-1.688;2023-02-28T05:35:02;30;29;
70255;PMS5003;57669;52.624;-1.688;2023-02-28T05:37:28;24;23;
70255;PMS5003;57669;52.624;-1.688;2023-02-28T05:42:18;34;33;
70255;PMS5003;57669;52.624;-1.688;2023-02-28T05:44:44;19;19;
70255;PMS5003;57669;52.624;-1.688;2023-02-28T05:47:10;26;24;
70255;PMS5003;57669;52.624;-1.688;2023-02-28T05:49:35;27;24;
70255;PMS5003;57669;52.624;-1.688;2023-02-28T05:52:00;21;21;
70255;PMS5003;57669;52.624;-1.688;2023-02-28T05:54:26;27;25;
70255;PMS5003;57669;52.624;-1.688;2023-02-28T05:59:16;26;26;
70255;PMS5003;57669;52.624;-1.688;2023-02-28T06:01:41;26;25;
70255;PMS5003;57669;52.624;-1.688;2023-02-28T06:04:07;29;28;
70255;PMS5003;57669;52.624;-1.688;2023-02-28T06:06:31;26;26;
70255;PMS5003;57669;52.624;-1.688;2023-02-28T06:11:22;28;25;
70255;PMS5003;57669;52.624;-1.688;2023-02-28T06:16:13;28;27;
70255;PMS5003;57669;52.624;-1.688;2023-02-28T06:18:39;29;29;
70255;PMS5003;57669;52.624;-1.688;2023-02-28T06:21:04;31;29;
70255;PMS5003;57669;52.624;-1.688;2023-02-28T06:23:29;30;29;
70255;PMS5003;57669;52.624;-1.688;2023-02-28T06:25:55;20;19;
70255;PMS5003;57669;52.624;-1.688;2023-02-28T06:28:21;26;26;
70255;PMS5003;57669;52.624;-1.688;2023-02-28T06:30:46;30;29;
70255;PMS5003;57669;52.624;-1.688;2023-02-28T06:33:11;22;21;
70255;PMS5003;57669;52.624;-1.688;2023-02-28T06:35:36;28;28;
70255;PMS5003;57669;52.624;-1.688;2023-02-28T06:38:02;28;28;
70255;PMS5003;57669;52.624;-1.688;2023-02-28T06:42:52;20;20;
70255;PMS5003;57669;52.624;-1.688;2023-02-28T06:45:17;21;20;
70255;PMS5003;57669;52.624;-1.688;2023-02-28T06:47:42;22;22;
70255;PMS5003;57669;52.624;-1.688;2023-02-28T06:50:08;18;18;
70255;PMS5003;57669;52.624;-1.688;2023-02-28T06:52:33;28;28;
70255;PMS5003;57669;52.624;-1.688;2023-02-28T06:54:58;19;18;
70255;PMS5003;57669;52.624;-1.688;2023-02-28T06:57:24;19;19;
70255;PMS5003;57669;52.624;-1.688;2023-02-28T06:59:49;19;19;
70255;PMS5003;57669;52.624;-1.688;2023-02-28T07:02:15;20;18;
70255;PMS5003;57669;52.624;-1.688;2023-02-28T07:04:40;23;23;
70255;PMS5003;57669;52.624;-1.688;2023-02-28T07:07:05;22;22;
70255;PMS5003;57669;52.624;-1.688;2023-02-28T07:09:30;19;18;
70255;PMS5003;57669;52.624;-1.688;2023-02-28T07:11:55;17;16;
70255;PMS5003;57669;52.624;-1.688;2023-02-28T07:14:21;20;19;
70255;PMS5003;57669;52.624;-1.688;2023-02-28T07:16:46;21;21;
70255;PMS5003;57669;52.624;-1.688;2023-02-28T07:19:11;21;19;
70255;PMS5003;57669;52.624;-1.688;2023-02-28T07:21:37;23;23;
70255;PMS5003;57669;52.624;-1.688;2023-02-28T07:24:02;14;14;
70255;PMS5003;57669;52.624;-1.688;2023-02-28T07:26:27;18;18;
70255;PMS5003;57669;52.624;-1.688;2023-02-28T07:28:53;18;17;
70255;PMS5003;57669;52.624;-1.688;2023-02-28T07:31:18;16;15;
70255;PMS5003;57669;52.624;-1.688;2023-02-28T07:33:44;13;13;
70255;PMS5003;57669;52.624;-1.688;2023-02-28T07:36:10;13;12;
70255;PMS5003;57669;52.624;-1.688;2023-02-28T07:38:35;18;17;
70255;PMS5003;57669;52.624;-1.688;2023-02-28T07:41:01;17;17;
70255;PMS5003;57669;52.624;-1.688;2023-02-28T07:43:26;10;9;
70255;PMS5003;57669;52.624;-1.688;2023-02-28T07:45:51;18;15;
70255;PMS5003;57669;52.624;-1.688;2023-02-28T07:48:16;17;17;
70255;PMS5003;57669;52.624;-1.688;2023-02-28T07:50:42;13;13;
70255;PMS5003;57669;52.624;-1.688;2023-02-28T07:53:07;13;12;
70255;PMS5003;57669;52.624;-1.688;2023-02-28T07:55:33;16;16;
70255;PMS5003;57669;52.624;-1.688;2023-02-28T07:57:59;12;12;
70255;PMS5003;57669;52.624;-1.688;2023-02-28T08:00:24;18;18;
70255;PMS5003;57669;52.624;-1.688;2023-02-28T08:02:49;12;11;
70255;PMS5003;57669;52.624;-1.688;2023-02-28T08:05:15;12;12;
70255;PMS5003;57669;52.624;-1.688;2023-02-28T08:07:40;20;17;
70255;PMS5003;57669;52.624;-1.688;2023-02-28T08:10:06;13;12;
70255;PMS5003;57669;52.624;-1.688;2023-02-28T08:12:31;18;17;
70255;PMS5003;57669;52.624;-1.688;2023-02-28T08:14:57;16;16;
70255;PMS5003;57669;52.624;-1.688;2023-02-28T08:17:22;12;12;
70255;PMS5003;57669;52.624;-1.688;2023-02-28T08:19:48;13;13;
70255;PMS5003;57669;52.624;-1.688;2023-02-28T08:22:13;17;16;
70255;PMS5003;57669;52.624;-1.688;2023-02-28T08:24:39;18;17;
70255;PMS5003;57669;52.624;-1.688;2023-02-28T08:27:04;12;12;
70255;PMS5003;57669;52.624;-1.688;2023-02-28T08:29:30;14;13;
70255;PMS5003;57669;52.624;-1.688;2023-02-28T08:31:55;12;12;
70255;PMS5003;57669;52.624;-1.688;2023-02-28T08:34:21;11;11;
70255;PMS5003;57669;52.624;-1.688;2023-02-28T08:36:47;13;13;
70255;PMS5003;57669;52.624;-1.688;2023-02-28T08:39:12;12;12;
70255;PMS5003;57669;52.624;-1.688;2023-02-28T08:41:38;13;12;
70255;PMS5003;57669;52.624;-1.688;2023-02-28T08:44:04;14;13;
70255;PMS5003;57669;52.624;-1.688;2023-02-28T08:46:29;11;10;
70255;PMS5003;57669;52.624;-1.688;2023-02-28T08:48:55;15;12;
70255;PMS5003;57669;52.624;-1.688;2023-02-28T08:51:20;13;13;
70255;PMS5003;57669;52.624;-1.688;2023-02-28T08:53:46;15;15;
70255;PMS5003;57669;52.624;-1.688;2023-02-28T08:56:12;18;16;
70255;PMS5003;57669;52.624;-1.688;2023-02-28T08:58:36;12;11;
70255;PMS5003;57669;52.624;-1.688;2023-02-28T09:01:07;13;12;
70255;PMS5003;57669;52.624;-1.688;2023-02-28T09:03:28;10;10;
70255;PMS5003;57669;52.624;-1.688;2023-02-28T09:05:54;11;11;
70255;PMS5003;57669;52.624;-1.688;2023-02-28T09:08:19;11;11;
70255;PMS5003;57669;52.624;-1.688;2023-02-28T09:10:45;10;10;
70255;PMS5003;57669;52.624;-1.688;2023-02-28T09:13:09;11;11;
70255;PMS5003;57669;52.624;-1.688;2023-02-28T09:15:36;9;9;
70255;PMS5003;57669;52.624;-1.688;2023-02-28T09:18:01;12;11;
70255;PMS5003;57669;52.624;-1.688;2023-02-28T09:20:26;10;10;
70255;PMS5003;57669;52.624;-1.688;2023-02-28T09:22:52;9;9;
70255;PMS5003;57669;52.624;-1.688;2023-02-28T09:25:18;12;9;
70255;PMS5003;57669;52.624;-1.688;2023-02-28T09:27:43;9;8;
70255;PMS5003;57669;52.624;-1.688;2023-02-28T09:30:10;8;8;
70255;PMS5003;57669;52.624;-1.688;2023-02-28T09:32:34;10;10;
70255;PMS5003;57669;52.624;-1.688;2023-02-28T09:35:00;15;14;
70255;PMS5003;57669;52.624;-1.688;2023-02-28T09:37:25;10;10;
70255;PMS5003;57669;52.624;-1.688;2023-02-28T09:39:51;8;8;
70255;PMS5003;57669;52.624;-1.688;2023-02-28T09:42:18;9;9;
70255;PMS5003;57669;52.624;-1.688;2023-02-28T09:44:43;13;13;
70255;PMS5003;57669;52.624;-1.688;2023-02-28T09:47:10;10;10;
70255;PMS5003;57669;52.624;-1.688;2023-02-28T09:49:36;6;6;
70255;PMS5003;57669;52.624;-1.688;2023-02-28T09:51:59;8;8;
70255;PMS5003;57669;52.624;-1.688;2023-02-28T09:54:27;8;8;
70255;PMS5003;57669;52.624;-1.688;2023-02-28T09:56:51;10;10;
70255;PMS5003;57669;52.624;-1.688;2023-02-28T09:59:17;8;8;
70255;PMS5003;57669;52.624;-1.688;2023-02-28T10:01:43;7;7;
70255;PMS5003;57669;52.624;-1.688;2023-02-28T10:04:08;8;7;
70255;PMS5003;57669;52.624;-1.688;2023-02-28T10:06:33;10;10;
70255;PMS5003;57669;52.624;-1.688;2023-02-28T10:08:59;9;9;
70255;PMS5003;57669;52.624;-1.688;2023-02-28T10:11:23;9;9;
70255;PMS5003;57669;52.624;-1.688;2023-02-28T10:13:51;8;8;
70255;PMS5003;57669;52.624;-1.688;2023-02-28T10:16:15;8;7;
70255;PMS5003;57669;52.624;-1.688;2023-02-28T10:18:41;7;7;
70255;PMS5003;57669;52.624;-1.688;2023-02-28T10:21:08;9;9;
70255;PMS5003;57669;52.624;-1.688;2023-02-28T10:23:32;10;10;
70255;PMS5003;57669;52.624;-1.688;2023-02-28T10:25:58;6;6;
70255;PMS5003;57669;52.624;-1.688;2023-02-28T10:28:23;7;7;
70255;PMS5003;57669;52.624;-1.688;2023-02-28T10:30:49;8;8;
70255;PMS5003;57669;52.624;-1.688;2023-02-28T10:33:16;10;9;
70255;PMS5003;57669;52.624;-1.688;2023-02-28T10:38:08;9;8;
70255;PMS5003;57669;52.624;-1.688;2023-02-28T10:40:30;8;8;
70255;PMS5003;57669;52.624;-1.688;2023-02-28T10:42:55;6;6;
70255;PMS5003;57669;52.624;-1.688;2023-02-28T10:45:18;6;6;
70255;PMS5003;57669;52.624;-1.688;2023-02-28T10:47:49;7;7;
70255;PMS5003;57669;52.624;-1.688;2023-02-28T10:52:36;8;8;
70255;PMS5003;57669;52.624;-1.688;2023-02-28T10:57:26;5;5;
70255;PMS5003;57669;52.624;-1.688;2023-02-28T10:59:51;6;5;
70255;PMS5003;57669;52.624;-1.688;2023-02-28T11:04:42;7;7;
70255;PMS5003;57669;52.624;-1.688;2023-02-28T11:09:33;6;6;
70255;PMS5003;57669;52.624;-1.688;2023-02-28T11:11:58;7;7;
70255;PMS5003;57669;52.624;-1.688;2023-02-28T11:14:24;6;6;
70255;PMS5003;57669;52.624;-1.688;2023-02-28T11:16:49;7;6;
70255;PMS5003;57669;52.624;-1.688;2023-02-28T11:19:17;6;6;
70255;PMS5003;57669;52.624;-1.688;2023-02-28T11:21:40;5;5;
70255;PMS5003;57669;52.624;-1.688;2023-02-28T11:24:07;8;7;
70255;PMS5003;57669;52.624;-1.688;2023-02-28T11:31:21;6;6;
70255;PMS5003;57669;52.624;-1.688;2023-02-28T11:33:47;7;7;
70255;PMS5003;57669;52.624;-1.688;2023-02-28T11:36:13;8;7;
70255;PMS5003;57669;52.624;-1.688;2023-02-28T11:38:37;6;4;
70255;PMS5003;57669;52.624;-1.688;2023-02-28T11:43:30;6;5;
70255;PMS5003;57669;52.624;-1.688;2023-02-28T11:45:57;4;4;
70255;PMS5003;57669;52.624;-1.688;2023-02-28T11:48:21;7;6;
70255;PMS5003;57669;52.624;-1.688;2023-02-28T11:50:47;6;6;
70255;PMS5003;57669;52.624;-1.688;2023-02-28T11:53:13;6;6;
70255;PMS5003;57669;52.624;-1.688;2023-02-28T11:55:36;7;6;
70255;PMS5003;57669;52.624;-1.688;2023-02-28T12:00:31;7;7;
70255;PMS5003;57669;52.624;-1.688;2023-02-28T12:02:56;11;10;
70255;PMS5003;57669;52.624;-1.688;2023-02-28T12:05:22;8;7;
70255;PMS5003;57669;52.624;-1.688;2023-02-28T12:07:47;5;5;
70255;PMS5003;57669;52.624;-1.688;2023-02-28T12:10:12;7;7;
70255;PMS5003;57669;52.624;-1.688;2023-02-28T12:12:38;6;6;
70255;PMS5003;57669;52.624;-1.688;2023-02-28T12:15:05;6;6;
70255;PMS5003;57669;52.624;-1.688;2023-02-28T12:17:29;4;4;
70255;PMS5003;57669;52.624;-1.688;2023-02-28T12:19:53;4;4;
70255;PMS5003;57669;52.624;-1.688;2023-02-28T12:24:49;4;4;
70255;PMS5003;57669;52.624;-1.688;2023-02-28T12:27:08;5;5;
70255;PMS5003;57669;52.624;-1.688;2023-02-28T12:29:34;6;6;
70255;PMS5003;57669;52.624;-1.688;2023-02-28T12:31:59;7;7;
70255;PMS5003;57669;52.624;-1.688;2023-02-28T12:34:25;6;6;
70255;PMS5003;57669;52.624;-1.688;2023-02-28T12:36:49;8;7;
70255;PMS5003;57669;52.624;-1.688;2023-02-28T12:39:16;5;5;
70255;PMS5003;57669;52.624;-1.688;2023-02-28T12:41:41;6;6;
70255;PMS5003;57669;52.624;-1.688;2023-02-28T12:44:12;8;8;
70255;PMS5003;57669;52.624;-1.688;2023-02-28T12:46:32;7;7;
70255;PMS5003;57669;52.624;-1.688;2023-02-28T12:48:57;8;7;
70255;PMS5003;57669;52.624;-1.688;2023-02-28T12:51:23;6;6;
70255;PMS5003;57669;52.624;-1.688;2023-02-28T12:53:52;6;5;
70255;PMS5003;57669;52.624;-1.688;2023-02-28T12:56:15;7;7;
70255;PMS5003;57669;52.624;-1.688;2023-02-28T13:01:12;7;7;
70255;PMS5003;57669;52.624;-1.688;2023-02-28T13:03:35;4;4;
70255;PMS5003;57669;52.624;-1.688;2023-02-28T13:08:27;4;4;
70255;PMS5003;57669;52.624;-1.688;2023-02-28T13:10:48;4;4;
70255;PMS5003;57669;52.624;-1.688;2023-02-28T13:13:15;6;6;
70255;PMS5003;57669;52.624;-1.688;2023-02-28T13:15:37;3;3;
70255;PMS5003;57669;52.624;-1.688;2023-02-28T13:18:02;4;4;
70255;PMS5003;57669;52.624;-1.688;2023-02-28T13:20:29;7;4;
70255;PMS5003;57669;52.624;-1.688;2023-02-28T13:22:54;4;3;
70255;PMS5003;57669;52.624;-1.688;2023-02-28T13:27:44;4;4;
70255;PMS5003;57669;52.624;-1.688;2023-02-28T13:32:35;5;4;
70255;PMS5003;57669;52.624;-1.688;2023-02-28T13:39:53;7;7;
70255;PMS5003;57669;52.624;-1.688;2023-02-28T13:42:22;5;5;
70255;PMS5003;57669;52.624;-1.688;2023-02-28T13:49:34;5;5;
70255;PMS5003;57669;52.624;-1.688;2023-02-28T13:52:02;4;4;
70255;PMS5003;57669;52.624;-1.688;2023-02-28T13:54:28;5;5;
70255;PMS5003;57669;52.624;-1.688;2023-02-28T13:56:51;4;4;
70255;PMS5003;57669;52.624;-1.688;2023-02-28T13:59:18;4;4;
70255;PMS5003;57669;52.624;-1.688;2023-02-28T14:01:44;5;5;
70255;PMS5003;57669;52.624;-1.688;2023-02-28T14:04:14;2;2;
70255;PMS5003;57669;52.624;-1.688;2023-02-28T14:06:31;2;2;
70255;PMS5003;57669;52.624;-1.688;2023-02-28T14:08:58;4;4;
70255;PMS5003;57669;52.624;-1.688;2023-02-28T14:11:25;2;2;
70255;PMS5003;57669;52.624;-1.688;2023-02-28T14:13:48;4;4;
70255;PMS5003;57669;52.624;-1.688;2023-02-28T14:16:13;8;8;
70255;PMS5003;57669;52.624;-1.688;2023-02-28T14:18:40;5;5;
70255;PMS5003;57669;52.624;-1.688;2023-02-28T14:23:34;3;3;
70255;PMS5003;57669;52.624;-1.688;2023-02-28T14:25:59;6;5;
70255;PMS5003;57669;52.624;-1.688;2023-02-28T14:28:23;4;4;
70255;PMS5003;57669;52.624;-1.688;2023-02-28T14:33:16;5;5;
70255;PMS5003;57669;52.624;-1.688;2023-02-28T14:35:40;7;7;
70255;PMS5003;57669;52.624;-1.688;2023-02-28T14:38:04;5;5;
70255;PMS5003;57669;52.624;-1.688;2023-02-28T14:40:29;6;6;
70255;PMS5003;57669;52.624;-1.688;2023-02-28T14:42:55;4;4;
70255;PMS5003;57669;52.624;-1.688;2023-02-28T14:45:20;5;5;
70255;PMS5003;57669;52.624;-1.688;2023-02-28T14:47:45;7;5;
70255;PMS5003;57669;52.624;-1.688;2023-02-28T14:52:35;5;4;
70255;PMS5003;57669;52.624;-1.688;2023-02-28T14:55:01;5;5;
70255;PMS5003;57669;52.624;-1.688;2023-02-28T14:57:32;5;5;
70255;PMS5003;57669;52.624;-1.688;2023-02-28T15:02:19;6;6;
70255;PMS5003;57669;52.624;-1.688;2023-02-28T15:04:42;6;6;
70255;PMS5003;57669;52.624;-1.688;2023-02-28T15:07:08;6;6;
70255;PMS5003;57669;52.624;-1.688;2023-02-28T15:09:33;7;7;
70255;PMS5003;57669;52.624;-1.688;2023-02-28T15:11:59;7;6;
70255;PMS5003;57669;52.624;-1.688;2023-02-28T15:14:24;4;4;
70255;PMS5003;57669;52.624;-1.688;2023-02-28T15:16:52;5;4;
70255;PMS5003;57669;52.624;-1.688;2023-02-28T15:19:17;5;5;
70255;PMS5003;57669;52.624;-1.688;2023-02-28T15:21:41;5;5;
70255;PMS5003;57669;52.624;-1.688;2023-02-28T15:26:32;6;5;
70255;PMS5003;57669;52.624;-1.688;2023-02-28T15:28:57;4;4;
70255;PMS5003;57669;52.624;-1.688;2023-02-28T15:31:23;6;6;
70255;PMS5003;57669;52.624;-1.688;2023-02-28T15:33:52;5;5;
70255;PMS5003;57669;52.624;-1.688;2023-02-28T15:36:15;5;5;
70255;PMS5003;57669;52.624;-1.688;2023-02-28T15:38:38;5;5;
70255;PMS5003;57669;52.624;-1.688;2023-02-28T15:41:04;5;5;
70255;PMS5003;57669;52.624;-1.688;2023-02-28T15:43:29;6;6;
70255;PMS5003;57669;52.624;-1.688;2023-02-28T15:45:56;6;6;
70255;PMS5003;57669;52.624;-1.688;2023-02-28T15:48:20;6;6;
70255;PMS5003;57669;52.624;-1.688;2023-02-28T15:50:47;5;4;
70255;PMS5003;57669;52.624;-1.688;2023-02-28T15:53:12;6;6;
70255;PMS5003;57669;52.624;-1.688;2023-02-28T15:55:37;6;6;
70255;PMS5003;57669;52.624;-1.688;2023-02-28T15:58:08;7;7;
70255;PMS5003;57669;52.624;-1.688;2023-02-28T16:00:28;7;7;
70255;PMS5003;57669;52.624;-1.688;2023-02-28T16:02:52;7;7;
70255;PMS5003;57669;52.624;-1.688;2023-02-28T16:05:20;4;4;
70255;PMS5003;57669;52.624;-1.688;2023-02-28T16:07:44;6;5;
70255;PMS5003;57669;52.624;-1.688;2023-02-28T16:10:10;7;7;
70255;PMS5003;57669;52.624;-1.688;2023-02-28T16:12:36;12;10;
70255;PMS5003;57669;52.624;-1.688;2023-02-28T16:15:01;7;6;
70255;PMS5003;57669;52.624;-1.688;2023-02-28T16:17:26;5;5;
70255;PMS5003;57669;52.624;-1.688;2023-02-28T16:19:52;9;8;
70255;PMS5003;57669;52.624;-1.688;2023-02-28T16:22:17;8;8;
70255;PMS5003;57669;52.624;-1.688;2023-02-28T16:24:42;6;6;
70255;PMS5003;57669;52.624;-1.688;2023-02-28T16:27:10;8;8;
70255;PMS5003;57669;52.624;-1.688;2023-02-28T16:29:34;10;9;
70255;PMS5003;57669;52.624;-1.688;2023-02-28T16:31:58;8;8;
70255;PMS5003;57669;52.624;-1.688;2023-02-28T16:34:24;7;7;
70255;PMS5003;57669;52.624;-1.688;2023-02-28T16:36:50;10;10;
70255;PMS5003;57669;52.624;-1.688;2023-02-28T16:39:16;9;9;
70255;PMS5003;57669;52.624;-1.688;2023-02-28T16:41:41;6;6;
70255;PMS5003;57669;52.624;-1.688;2023-02-28T16:44:07;11;11;
70255;PMS5003;57669;52.624;-1.688;2023-02-28T16:46:33;8;7;
70255;PMS5003;57669;52.624;-1.688;2023-02-28T16:48:58;9;8;
70255;PMS5003;57669;52.624;-1.688;2023-02-28T16:51:23;10;10;
70255;PMS5003;57669;52.624;-1.688;2023-02-28T16:53:48;7;7;
70255;PMS5003;57669;52.624;-1.688;2023-02-28T16:56:16;11;11;
70255;PMS5003;57669;52.624;-1.688;2023-02-28T16:58:39;11;10;
70255;PMS5003;57669;52.624;-1.688;2023-02-28T17:01:05;8;8;
70255;PMS5003;57669;52.624;-1.688;2023-02-28T17:05:56;9;9;
70255;PMS5003;57669;52.624;-1.688;2023-02-28T17:08:22;7;7;
70255;PMS5003;57669;52.624;-1.688;2023-02-28T17:10:47;10;8;
70255;PMS5003;57669;52.624;-1.688;2023-02-28T17:13:13;7;7;
70255;PMS5003;57669;52.624;-1.688;2023-02-28T17:15:38;12;10;
70255;PMS5003;57669;52.624;-1.688;2023-02-28T17:18:04;7;7;
70255;PMS5003;57669;52.624;-1.688;2023-02-28T17:20:29;6;6;
70255;PMS5003;57669;52.624;-1.688;2023-02-28T17:22:55;8;8;
70255;PMS5003;57669;52.624;-1.688;2023-02-28T17:25:20;5;5;
70255;PMS5003;57669;52.624;-1.688;2023-02-28T17:27:45;8;7;
70255;PMS5003;57669;52.624;-1.688;2023-02-28T17:30:13;11;10;
70255;PMS5003;57669;52.624;-1.688;2023-02-28T17:32:35;7;7;
70255;PMS5003;57669;52.624;-1.688;2023-02-28T17:35:00;8;7;
70255;PMS5003;57669;52.624;-1.688;2023-02-28T17:37:25;8;8;
70255;PMS5003;57669;52.624;-1.688;2023-02-28T17:39:50;8;8;
70255;PMS5003;57669;52.624;-1.688;2023-02-28T17:42:15;8;8;